createdAt,value
2022-10-20T00:00:59.885Z,8.93
2022-10-20T00:02:01.590Z,8.27
2022-10-20T00:03:03.458Z,7.87
2022-10-20T00:04:05.261Z,9.03
2022-10-20T00:05:07.503Z,7.43
2022-10-20T00:06:16.237Z,8.43
2022-10-20T00:07:17.959Z,6.33
2022-10-20T00:08:20.461Z,8.73
2022-10-20T00:09:22.186Z,6.33
2022-10-20T00:10:23.881Z,7.93
2022-10-20T00:11:28.086Z,6.83
2022-10-20T00:12:29.861Z,9.07
2022-10-20T00:13:31.738Z,6.73
2022-10-20T00:14:33.493Z,6.57
2022-10-20T00:15:35.439Z,6.57
2022-10-20T00:16:39.789Z,6.73
2022-10-20T00:17:41.535Z,9.80
2022-10-20T00:18:44.648Z,6.70
2022-10-20T00:19:49.591Z,8.50
2022-10-20T00:20:52.417Z,6.20
2022-10-20T00:21:54.871Z,9.77
2022-10-20T00:22:56.563Z,6.53
2022-10-20T00:24:03.145Z,7.33
2022-10-20T00:25:05.507Z,7.77
2022-10-20T00:26:15.469Z,7.40
2022-10-20T00:27:17.156Z,9.90
2022-10-20T00:28:18.832Z,11.70
2022-10-20T00:29:20.586Z,7.57
2022-10-20T00:30:23.782Z,6.93
2022-10-20T00:31:27.776Z,6.67
2022-10-20T00:32:32.312Z,9.23
2022-10-20T00:33:35.430Z,7.07
2022-10-20T00:34:37.147Z,8.70
2022-10-20T00:35:39.438Z,8.53
2022-10-20T00:36:41.221Z,8.63
2022-10-20T00:37:42.937Z,6.13
2022-10-20T00:38:45.143Z,7.80
2022-10-20T00:39:46.859Z,6.80
2022-10-20T00:40:48.606Z,7.37
2022-10-20T00:41:50.314Z,6.57
2022-10-20T00:42:52.077Z,7.00
2022-10-20T00:44:23.939Z,8.80
2022-10-20T00:45:26.338Z,6.97
2022-10-20T00:46:40.331Z,7.97
2022-10-20T00:48:04.712Z,6.73
2022-10-20T00:49:25.712Z,7.00
2022-10-20T00:50:41.706Z,7.50
2022-10-20T00:51:44.727Z,5.63
2022-10-20T00:52:48.356Z,7.00
2022-10-20T00:53:53.502Z,7.90
2022-10-20T00:54:55.248Z,8.43
2022-10-20T00:56:00.348Z,6.50
2022-10-20T00:58:09.783Z,11.73
2022-10-20T00:59:18.296Z,7.30
2022-10-20T01:00:20.463Z,9.57
2022-10-20T01:01:22.207Z,6.03
2022-10-20T01:02:24.099Z,6.43
2022-10-20T01:03:48.730Z,10.50
2022-10-20T01:04:51.709Z,8.10
2022-10-20T01:05:53.439Z,7.67
2022-10-20T01:06:56.593Z,8.10
2022-10-20T01:07:58.360Z,8.97
2022-10-20T01:09:00.861Z,7.57
2022-10-20T01:10:07.021Z,7.07
2022-10-20T01:11:46.072Z,5.67
2022-10-20T01:13:24.701Z,6.97
2022-10-20T01:15:09.151Z,6.87
2022-10-20T01:16:23.513Z,7.20
2022-10-20T01:17:42.461Z,7.97
2022-10-20T01:19:17.329Z,5.57
2022-10-20T01:21:04.541Z,6.37
2022-10-20T01:23:04.203Z,7.83
2022-10-20T01:24:23.992Z,6.03
2022-10-20T01:25:49.980Z,6.00
2022-10-20T01:27:10.291Z,6.30
2022-10-20T01:28:54.863Z,5.90
2022-10-20T01:30:18.676Z,7.87
2022-10-20T01:32:18.498Z,6.17
2022-10-20T01:34:16.364Z,7.43
2022-10-20T01:35:42.082Z,6.67
2022-10-20T01:36:54.667Z,8.27
2022-10-20T01:38:03.717Z,10.40
2022-10-20T01:39:17.439Z,7.10
2022-10-20T01:40:29.402Z,9.50
2022-10-20T01:41:45.232Z,9.63
2022-10-20T01:42:52.723Z,8.20
2022-10-20T01:43:56.310Z,6.90
2022-10-20T01:45:03.992Z,6.40
2022-10-20T01:46:09.206Z,8.93
2022-10-20T01:47:14.431Z,8.70
2022-10-20T01:48:22.452Z,6.47
2022-10-20T01:49:26.155Z,8.30
2022-10-20T01:50:29.352Z,6.70
2022-10-20T01:51:32.638Z,9.33
2022-10-20T01:52:34.636Z,9.00
2022-10-20T01:53:37.243Z,6.40
2022-10-20T01:54:39.618Z,8.33
2022-10-20T01:55:42.214Z,9.67
2022-10-20T01:57:02.030Z,9.10
2022-10-20T01:58:29.721Z,6.77
2022-10-20T02:00:09.074Z,8.00
2022-10-20T02:01:55.544Z,7.33
2022-10-20T02:03:28.028Z,9.53
2022-10-20T02:05:07.471Z,6.90
2022-10-20T02:06:27.474Z,5.67
2022-10-20T02:07:32.926Z,7.67
2022-10-20T02:08:47.862Z,10.83
2022-10-20T02:10:00.493Z,10.80
2022-10-20T02:11:06.427Z,9.37
2022-10-20T02:12:16.395Z,6.73
2022-10-20T02:13:21.165Z,7.63
2022-10-20T02:14:23.851Z,7.37
2022-10-20T02:15:30.002Z,6.67
2022-10-20T02:16:49.706Z,6.57
2022-10-20T02:18:01.489Z,9.67
2022-10-20T02:19:07.598Z,6.60
2022-10-20T02:20:11.416Z,7.20
2022-10-20T02:21:13.371Z,7.17
2022-10-20T02:22:16.767Z,10.77
2022-10-20T02:23:19.031Z,8.00
2022-10-20T02:24:27.050Z,9.57
2022-10-20T02:25:31.218Z,7.23
2022-10-20T02:26:36.481Z,7.60
2022-10-20T02:27:43.576Z,7.23
2022-10-20T02:28:53.171Z,7.50
2022-10-20T02:30:11.187Z,8.23
2022-10-20T02:31:13.358Z,5.97
2022-10-20T02:32:17.257Z,7.07
2022-10-20T02:33:20.433Z,6.30
2022-10-20T02:34:27.004Z,6.60
2022-10-20T02:35:34.734Z,7.70
2022-10-20T02:36:41.663Z,8.83
2022-10-20T02:37:43.599Z,6.40
2022-10-20T02:38:45.988Z,8.33
2022-10-20T02:39:47.673Z,5.83
2022-10-20T02:40:49.469Z,6.67
2022-10-20T02:41:51.844Z,6.87
2022-10-20T02:42:53.896Z,10.07
2022-10-20T02:43:55.582Z,7.63
2022-10-20T02:44:57.299Z,7.47
2022-10-20T02:45:59.004Z,6.90
2022-10-20T02:47:00.791Z,7.90
2022-10-20T02:48:04.205Z,7.93
2022-10-20T02:49:08.106Z,7.90
2022-10-20T02:50:10.409Z,6.53
2022-10-20T02:51:13.199Z,6.77
2022-10-20T02:52:15.571Z,9.77
2022-10-20T02:53:17.286Z,7.33
2022-10-20T02:54:19.350Z,8.00
2022-10-20T02:55:21.115Z,10.17
2022-10-20T02:56:25.402Z,8.73
2022-10-20T02:57:29.369Z,6.63
2022-10-20T02:58:31.048Z,6.93
2022-10-20T02:59:33.319Z,6.73
2022-10-20T03:00:35.100Z,9.87
2022-10-20T03:01:36.840Z,8.50
2022-10-20T03:02:38.675Z,6.53
2022-10-20T03:03:40.415Z,7.37
2022-10-20T03:04:42.233Z,7.73
2022-10-20T03:05:44.503Z,7.83
2022-10-20T03:06:46.812Z,7.10
2022-10-20T03:07:48.553Z,8.47
2022-10-20T03:08:50.288Z,7.10
2022-10-20T03:09:52.032Z,8.33
2022-10-20T03:10:53.719Z,7.73
2022-10-20T03:11:55.444Z,8.03
2022-10-20T03:12:57.142Z,7.03
2022-10-20T03:13:58.980Z,6.10
2022-10-20T03:15:00.685Z,8.77
2022-10-20T03:16:02.783Z,9.73
2022-10-20T03:17:04.543Z,9.63
2022-10-20T03:18:06.256Z,9.63
2022-10-20T03:19:11.332Z,8.57
2022-10-20T03:20:13.542Z,6.93
2022-10-20T03:21:15.313Z,7.63
2022-10-20T03:22:17.051Z,9.03
2022-10-20T03:23:20.195Z,9.33
2022-10-20T03:24:22.040Z,10.90
2022-10-20T03:25:23.731Z,5.80
2022-10-20T03:26:25.547Z,6.23
2022-10-20T03:27:27.287Z,6.80
2022-10-20T03:28:29.140Z,6.27
2022-10-20T03:29:30.883Z,8.90
2022-10-20T03:30:32.581Z,9.80
2022-10-20T03:31:34.366Z,7.60
2022-10-20T03:32:36.478Z,7.83
2022-10-20T03:33:38.435Z,7.43
2022-10-20T03:34:40.154Z,6.00
2022-10-20T03:35:41.837Z,8.63
2022-10-20T03:36:43.566Z,7.50
2022-10-20T03:37:45.273Z,7.23
2022-10-20T03:38:47.025Z,8.47
2022-10-20T03:39:48.773Z,6.30
2022-10-20T03:40:51.490Z,9.13
2022-10-20T03:41:54.383Z,7.50
2022-10-20T03:42:56.100Z,9.33
2022-10-20T03:43:57.869Z,6.33
2022-10-20T03:44:59.580Z,8.20
2022-10-20T03:46:05.110Z,7.50
2022-10-20T03:47:07.390Z,5.50
2022-10-20T03:48:10.999Z,8.37
2022-10-20T03:49:12.801Z,11.40
2022-10-20T03:50:14.559Z,11.93
2022-10-20T03:51:16.764Z,7.23
2022-10-20T03:52:18.488Z,7.07
2022-10-20T03:53:20.187Z,8.17
2022-10-20T03:54:21.900Z,9.43
2022-10-20T03:55:23.596Z,10.10
2022-10-20T03:56:25.337Z,9.57
2022-10-20T03:57:27.040Z,7.80
2022-10-20T03:58:28.784Z,8.50
2022-10-20T03:59:30.663Z,7.27
2022-10-20T04:00:32.565Z,6.63
2022-10-20T04:01:35.392Z,9.03
2022-10-20T04:02:45.650Z,6.93
2022-10-20T04:03:47.499Z,6.73
2022-10-20T04:04:49.262Z,7.57
2022-10-20T04:05:50.989Z,7.70
2022-10-20T04:06:52.678Z,6.60
2022-10-20T04:07:54.430Z,11.80
2022-10-20T04:08:56.191Z,11.77
2022-10-20T04:09:58.354Z,7.33
2022-10-20T04:11:00.227Z,7.43
2022-10-20T04:12:01.905Z,6.83
2022-10-20T04:13:03.847Z,7.93
2022-10-20T04:14:05.568Z,9.80
2022-10-20T04:15:08.908Z,6.40
2022-10-20T04:16:10.691Z,6.43
2022-10-20T04:17:12.402Z,8.83
2022-10-20T04:18:14.114Z,8.93
2022-10-20T04:19:15.796Z,7.20
2022-10-20T04:20:17.750Z,8.90
2022-10-20T04:21:19.486Z,8.83
2022-10-20T04:22:21.324Z,8.27
2022-10-20T04:23:23.126Z,7.70
2022-10-20T04:24:24.850Z,8.10
2022-10-20T04:25:26.651Z,8.03
2022-10-20T04:26:28.404Z,8.87
2022-10-20T04:27:30.113Z,6.33
2022-10-20T04:28:31.793Z,10.30
2022-10-20T04:29:33.870Z,7.53
2022-10-20T04:30:35.596Z,11.30
2022-10-20T04:31:37.292Z,9.37
2022-10-20T04:32:39.158Z,11.63
2022-10-20T04:33:41.051Z,9.33
2022-10-20T04:34:42.791Z,11.43
2022-10-20T04:35:44.668Z,9.63
2022-10-20T04:36:46.657Z,10.13
2022-10-20T04:37:48.351Z,9.23
2022-10-20T04:38:50.057Z,9.93
2022-10-20T04:39:51.831Z,8.67
2022-10-20T04:41:00.409Z,7.80
2022-10-20T04:42:05.036Z,10.03
2022-10-20T04:43:06.737Z,8.50
2022-10-20T04:44:08.815Z,9.33
2022-10-20T04:45:10.753Z,9.90
2022-10-20T04:46:12.548Z,9.57
2022-10-20T04:47:14.311Z,10.23
2022-10-20T04:48:16.588Z,7.60
2022-10-20T04:49:18.353Z,10.20
2022-10-20T04:50:20.069Z,9.20
2022-10-20T04:51:21.836Z,9.83
2022-10-20T04:52:23.524Z,8.77
2022-10-20T04:53:25.240Z,11.37
2022-10-20T04:54:26.948Z,10.40
2022-10-20T04:55:28.688Z,10.93
2022-10-20T04:56:30.495Z,10.33
2022-10-20T04:57:33.485Z,10.30
2022-10-20T04:58:36.017Z,9.83
2022-10-20T04:59:37.757Z,10.07
2022-10-20T05:00:39.485Z,8.00
2022-10-20T05:01:41.588Z,9.23
2022-10-20T05:02:43.360Z,9.67
2022-10-20T05:03:45.433Z,10.27
2022-10-20T05:04:47.199Z,9.17
2022-10-20T05:05:48.923Z,9.77
2022-10-20T05:06:50.660Z,12.87
2022-10-20T05:07:52.352Z,11.30
2022-10-20T05:08:59.120Z,12.37
2022-10-20T05:10:00.942Z,12.27
2022-10-20T05:11:02.952Z,12.00
2022-10-20T05:12:04.894Z,9.67
2022-10-20T05:13:06.669Z,12.60
2022-10-20T05:14:08.671Z,11.70
2022-10-20T05:15:10.515Z,12.77
2022-10-20T05:16:12.996Z,11.67
2022-10-20T05:17:15.369Z,9.23
2022-10-20T05:18:17.068Z,13.50
2022-10-20T05:19:19.378Z,13.53
2022-10-20T05:20:21.140Z,11.10
2022-10-20T05:21:28.249Z,11.33
2022-10-20T05:22:31.392Z,12.07
2022-10-20T05:23:33.183Z,13.23
2022-10-20T05:24:34.981Z,12.20
2022-10-20T05:25:38.621Z,13.33
2022-10-20T05:26:40.375Z,10.20
2022-10-20T05:27:42.095Z,12.10
2022-10-20T05:28:47.187Z,11.17
2022-10-20T05:29:49.158Z,14.87
2022-10-20T05:30:50.920Z,11.27
2022-10-20T05:31:52.673Z,12.13
2022-10-20T05:32:54.381Z,12.40
2022-10-20T05:33:57.607Z,14.23
2022-10-20T05:34:59.307Z,17.20
2022-10-20T05:36:07.197Z,27.47
2022-10-20T05:37:08.904Z,38.23
2022-10-20T05:38:10.606Z,51.60
2022-10-20T05:39:12.460Z,52.83
2022-10-20T05:40:14.514Z,45.73
2022-10-20T05:41:23.534Z,35.23
2022-10-20T05:42:25.267Z,23.37
2022-10-20T05:43:26.965Z,17.23
2022-10-20T05:44:28.670Z,18.27
2022-10-20T05:45:30.432Z,15.23
2022-10-20T05:46:41.184Z,12.83
2022-10-20T05:47:43.117Z,14.07
2022-10-20T05:48:46.558Z,18.73
2022-10-20T05:49:48.313Z,20.03
2022-10-20T05:50:50.073Z,19.17
2022-10-20T05:51:51.769Z,17.57
2022-10-20T05:52:53.870Z,26.70
2022-10-20T05:53:57.422Z,17.27
2022-10-20T05:54:59.476Z,14.90
2022-10-20T05:56:06.532Z,13.10
2022-10-20T05:57:08.264Z,12.93
2022-10-20T05:58:09.976Z,13.80
2022-10-20T05:59:13.252Z,17.03
2022-10-20T06:00:16.261Z,13.00
2022-10-20T06:01:24.371Z,12.07
2022-10-20T06:02:26.311Z,13.67
2022-10-20T06:03:28.390Z,12.73
2022-10-20T06:04:31.379Z,11.73
2022-10-20T06:05:33.177Z,12.93
2022-10-20T06:06:36.087Z,10.83
2022-10-20T06:07:37.815Z,11.20
2022-10-20T06:08:39.540Z,12.07
2022-10-20T06:09:41.445Z,12.17
2022-10-20T06:10:43.147Z,11.47
2022-10-20T06:11:45.229Z,11.30
2022-10-20T06:12:46.935Z,12.73
2022-10-20T06:13:51.852Z,11.80
2022-10-20T06:14:54.798Z,11.00
2022-10-20T06:16:15.323Z,11.23
2022-10-20T06:17:17.218Z,13.90
2022-10-20T06:18:18.993Z,13.70
2022-10-20T06:19:21.555Z,10.63
2022-10-20T06:20:23.283Z,12.13
2022-10-20T06:21:31.818Z,12.23
2022-10-20T06:22:33.994Z,12.97
2022-10-20T06:23:36.002Z,15.67
2022-10-20T06:24:37.702Z,12.57
2022-10-20T06:25:39.396Z,14.97
2022-10-20T06:26:41.161Z,11.90
2022-10-20T06:27:44.428Z,13.13
2022-10-20T06:28:49.123Z,18.23
2022-10-20T06:29:50.812Z,17.87
2022-10-20T06:30:52.515Z,15.77
2022-10-20T06:31:56.440Z,15.33
2022-10-20T06:32:58.136Z,14.93
2022-10-20T06:34:00.690Z,12.90
2022-10-20T06:35:02.461Z,14.63
2022-10-20T06:36:04.329Z,14.67
2022-10-20T06:37:06.061Z,13.90
2022-10-20T06:38:07.767Z,13.53
2022-10-20T06:39:23.178Z,14.70
2022-10-20T06:40:24.915Z,11.13
2022-10-20T06:41:28.043Z,11.80
2022-10-20T06:42:29.782Z,12.23
2022-10-20T06:43:31.640Z,14.23
2022-10-20T06:44:33.423Z,17.47
2022-10-20T06:45:35.185Z,11.33
2022-10-20T06:46:39.970Z,13.80
2022-10-20T06:47:41.925Z,13.87
2022-10-20T06:48:45.028Z,12.93
2022-10-20T06:49:48.761Z,9.33
2022-10-20T06:50:56.629Z,13.07
2022-10-20T06:51:58.439Z,10.07
2022-10-20T06:53:00.226Z,14.90
2022-10-20T06:54:02.699Z,10.73
2022-10-20T06:55:04.819Z,11.80
2022-10-20T06:56:11.786Z,12.47
2022-10-20T06:57:13.483Z,10.63
2022-10-20T06:58:15.183Z,11.37
2022-10-20T06:59:16.899Z,11.83
2022-10-20T07:00:18.727Z,9.80
2022-10-20T07:01:25.819Z,13.30
2022-10-20T07:02:27.597Z,13.17
2022-10-20T07:03:31.079Z,12.23
2022-10-20T07:04:32.822Z,12.73
2022-10-20T07:05:35.977Z,10.40
2022-10-20T07:06:41.380Z,15.00
2022-10-20T07:07:43.150Z,14.57
2022-10-20T07:08:46.642Z,10.40
2022-10-20T07:09:48.423Z,9.43
2022-10-20T07:11:13.482Z,10.23
2022-10-20T07:12:15.337Z,11.67
2022-10-20T07:13:17.065Z,14.83
2022-10-20T07:14:19.561Z,12.00
2022-10-20T07:15:21.598Z,10.20
2022-10-20T07:16:26.479Z,13.87
2022-10-20T07:17:28.306Z,14.13
2022-10-20T07:18:31.095Z,10.70
2022-10-20T07:19:33.271Z,10.10
2022-10-20T07:20:35.032Z,9.97
2022-10-20T07:21:38.338Z,12.03
2022-10-20T07:22:42.049Z,10.03
2022-10-20T07:23:44.583Z,9.77
2022-10-20T07:24:46.304Z,9.53
2022-10-20T07:25:48.115Z,8.43
2022-10-20T07:26:49.840Z,11.83
2022-10-20T07:27:51.593Z,8.80
2022-10-20T07:28:57.745Z,8.73
2022-10-20T07:29:59.507Z,7.97
2022-10-20T07:31:08.230Z,9.93
2022-10-20T07:32:09.991Z,6.60
2022-10-20T07:33:11.724Z,7.50
2022-10-20T07:34:26.745Z,7.10
2022-10-20T07:35:30.683Z,8.83
2022-10-20T07:36:35.945Z,7.23
2022-10-20T07:37:38.351Z,6.87
2022-10-20T07:38:40.560Z,6.80
2022-10-20T07:39:42.402Z,9.17
2022-10-20T07:40:44.132Z,7.30
2022-10-20T07:41:47.621Z,7.10
2022-10-20T07:42:49.422Z,6.13
2022-10-20T07:43:51.895Z,6.17
2022-10-20T07:44:53.604Z,9.03
2022-10-20T07:45:55.358Z,6.97
2022-10-20T07:46:57.078Z,6.60
2022-10-20T07:47:59.399Z,7.67
2022-10-20T07:49:23.887Z,6.30
2022-10-20T07:50:23.496Z,6.77
2022-10-20T07:51:31.563Z,6.50
2022-10-20T07:52:33.500Z,9.77
2022-10-20T07:53:35.407Z,5.57
2022-10-20T07:54:37.211Z,6.87
2022-10-20T07:55:39.451Z,5.43
2022-10-20T07:56:45.984Z,6.13
2022-10-20T07:57:48.477Z,9.77
2022-10-20T07:58:50.473Z,6.17
2022-10-20T07:59:52.308Z,5.50
2022-10-20T08:00:54.008Z,5.67
2022-10-20T08:01:56.285Z,5.97
2022-10-20T08:03:00.400Z,5.33
2022-10-20T08:04:02.253Z,6.37
2022-10-20T08:05:04.325Z,6.57
2022-10-20T08:06:06.853Z,5.73
2022-10-20T08:07:08.555Z,5.57
2022-10-20T08:08:10.275Z,5.50
2022-10-20T08:09:12.066Z,5.00
2022-10-20T08:10:13.861Z,5.40
2022-10-20T08:11:15.804Z,6.07
2022-10-20T08:12:17.792Z,5.17
2022-10-20T08:13:19.698Z,5.57
2022-10-20T08:14:21.412Z,4.90
2022-10-20T08:15:41.905Z,4.50
2022-10-20T08:16:46.456Z,4.73
2022-10-20T08:17:48.239Z,5.33
2022-10-20T08:19:02.821Z,4.97
2022-10-20T08:20:19.613Z,6.90
2022-10-20T08:21:23.596Z,5.63
2022-10-20T08:22:25.394Z,7.20
2022-10-20T08:23:27.108Z,11.10
2022-10-20T08:24:28.850Z,4.90
2022-10-20T08:25:30.568Z,5.90
2022-10-20T08:26:32.293Z,7.10
2022-10-20T08:27:34.092Z,4.70
2022-10-20T08:28:36.325Z,4.93
2022-10-20T08:29:38.328Z,4.57
2022-10-20T08:30:40.156Z,4.60
2022-10-20T08:31:44.520Z,4.40
2022-10-20T08:32:50.346Z,6.50
2022-10-20T08:33:53.237Z,4.70
2022-10-20T08:34:55.114Z,4.73
2022-10-20T08:36:11.504Z,6.83
2022-10-20T08:37:13.286Z,5.33
2022-10-20T08:38:15.026Z,4.10
2022-10-20T08:39:16.772Z,5.33
2022-10-20T08:40:25.169Z,4.20
2022-10-20T08:41:43.473Z,4.30
2022-10-20T08:42:56.376Z,3.83
2022-10-20T08:43:58.597Z,3.97
2022-10-20T08:45:00.674Z,4.60
2022-10-20T08:46:02.567Z,4.47
2022-10-20T08:47:20.809Z,4.00
2022-10-20T08:48:28.835Z,4.07
2022-10-20T08:49:35.150Z,5.83
2022-10-20T08:50:39.656Z,5.77
2022-10-20T08:51:42.654Z,4.27
2022-10-20T08:52:47.554Z,4.93
2022-10-20T08:53:55.487Z,3.60
2022-10-20T08:54:58.849Z,7.80
2022-10-20T08:56:00.614Z,9.30
2022-10-20T08:57:02.405Z,6.47
2022-10-20T08:58:15.885Z,3.40
2022-10-20T08:59:34.682Z,3.30
2022-10-20T09:00:39.413Z,3.53
2022-10-20T09:01:41.229Z,3.60
2022-10-20T09:02:43.348Z,3.80
2022-10-20T09:03:45.463Z,8.57
2022-10-20T09:04:58.448Z,4.10
2022-10-20T09:06:16.811Z,5.17
2022-10-20T09:07:24.243Z,5.20
2022-10-20T09:08:30.862Z,8.73
2022-10-20T09:09:33.780Z,4.10
2022-10-20T09:10:39.626Z,3.80
2022-10-20T09:11:42.224Z,4.20
2022-10-20T09:12:48.110Z,4.07
2022-10-20T09:13:50.236Z,4.33
2022-10-20T09:14:51.993Z,6.23
2022-10-20T09:16:04.664Z,3.77
2022-10-20T09:17:17.131Z,5.97
2022-10-20T09:18:20.469Z,17.67
2022-10-20T09:19:23.450Z,6.27
2022-10-20T09:20:30.044Z,4.43
2022-10-20T09:21:35.809Z,5.10
2022-10-20T09:22:37.880Z,7.57
2022-10-20T09:23:43.784Z,4.33
2022-10-20T09:24:47.044Z,5.27
2022-10-20T09:25:51.509Z,8.03
2022-10-20T09:26:58.647Z,6.93
2022-10-20T09:28:01.616Z,3.67
2022-10-20T09:29:14.386Z,4.20
2022-10-20T09:30:35.194Z,4.03
2022-10-20T09:31:45.867Z,3.63
2022-10-20T09:32:48.882Z,4.83
2022-10-20T09:33:50.656Z,4.43
2022-10-20T09:35:12.275Z,5.80
2022-10-20T09:36:19.846Z,4.03
2022-10-20T09:37:21.666Z,5.17
2022-10-20T09:38:29.758Z,3.53
2022-10-20T09:39:55.736Z,3.23
2022-10-20T09:41:20.806Z,11.70
2022-10-20T09:42:31.529Z,6.13
2022-10-20T09:43:33.549Z,3.30
2022-10-20T09:44:58.778Z,6.67
2022-10-20T09:46:07.449Z,3.20
2022-10-20T09:47:15.834Z,3.40
2022-10-20T09:48:36.722Z,3.33
2022-10-20T09:49:39.519Z,3.17
2022-10-20T09:50:48.139Z,3.17
2022-10-20T09:52:56.464Z,4.13
2022-10-20T09:54:06.667Z,3.33
2022-10-20T09:55:24.727Z,3.03
2022-10-20T09:56:35.399Z,3.00
2022-10-20T09:57:37.183Z,3.10
2022-10-20T09:58:39.649Z,2.77
2022-10-20T09:59:46.915Z,10.93
2022-10-20T10:01:22.413Z,2.83
2022-10-20T10:02:24.091Z,3.10
2022-10-20T10:03:26.241Z,2.87
2022-10-20T10:04:42.240Z,3.73
2022-10-20T10:05:44.062Z,2.77
2022-10-20T10:06:46.184Z,3.23
2022-10-20T10:07:59.771Z,2.50
2022-10-20T10:09:02.598Z,3.67
2022-10-20T10:10:17.964Z,6.53
2022-10-20T10:11:25.694Z,3.30
2022-10-20T10:12:30.626Z,3.27
2022-10-20T10:13:45.522Z,2.90
2022-10-20T10:14:54.345Z,2.73
2022-10-20T10:16:11.697Z,4.07
2022-10-20T10:17:40.929Z,2.40
2022-10-20T10:19:01.668Z,2.40
2022-10-20T10:20:11.459Z,2.83
2022-10-20T10:21:17.260Z,2.43
2022-10-20T10:22:19.869Z,2.60
2022-10-20T10:23:26.782Z,2.20
2022-10-20T10:24:48.237Z,2.77
2022-10-20T10:25:51.308Z,2.80
2022-10-20T10:26:55.606Z,5.80
2022-10-20T10:28:06.864Z,3.30
2022-10-20T10:29:38.153Z,4.20
2022-10-20T10:30:39.884Z,2.90
2022-10-20T10:32:13.775Z,2.70
2022-10-20T10:33:28.075Z,2.60
2022-10-20T10:34:54.580Z,3.07
2022-10-20T10:35:57.213Z,3.20
2022-10-20T10:36:59.613Z,2.77
2022-10-20T10:38:01.784Z,3.43
2022-10-20T10:39:11.778Z,2.63
2022-10-20T10:40:18.716Z,3.03
2022-10-20T10:41:42.203Z,2.50
2022-10-20T10:43:01.382Z,2.83
2022-10-20T10:44:21.151Z,2.80
2022-10-20T10:45:48.418Z,2.43
2022-10-20T10:47:18.511Z,2.40
2022-10-20T10:49:16.267Z,2.77
2022-10-20T10:51:00.186Z,2.80
2022-10-20T10:52:43.175Z,3.10
2022-10-20T10:54:29.243Z,4.50
2022-10-20T10:56:10.508Z,2.60
2022-10-20T10:57:32.219Z,4.70
2022-10-20T10:58:54.521Z,3.43
2022-10-20T11:00:02.386Z,2.73
2022-10-20T11:01:22.535Z,3.00
2022-10-20T11:02:48.421Z,3.07
2022-10-20T11:04:32.971Z,3.13
2022-10-20T11:05:46.571Z,4.07
2022-10-20T11:07:07.415Z,2.67
2022-10-20T11:09:00.792Z,2.67
2022-10-20T11:10:20.930Z,4.77
2022-10-20T11:11:52.278Z,3.57
2022-10-20T11:13:30.478Z,4.70
2022-10-20T11:15:28.728Z,5.30
2022-10-20T11:16:58.570Z,3.13
2022-10-20T11:18:36.899Z,4.23
2022-10-20T11:20:10.008Z,7.40
2022-10-20T11:23:11.612Z,4.30
2022-10-20T11:24:34.779Z,4.50
2022-10-20T11:25:44.527Z,2.90
2022-10-20T11:26:52.079Z,6.30
2022-10-20T11:27:57.444Z,8.70
2022-10-20T11:29:02.608Z,3.80
2022-10-20T11:30:15.576Z,6.13
2022-10-20T11:31:26.555Z,8.70
2022-10-20T11:33:56.616Z,8.90
2022-10-20T11:35:25.043Z,4.27
2022-10-20T11:36:35.726Z,4.23
2022-10-20T11:38:31.350Z,4.00
2022-10-20T11:39:57.190Z,2.83
2022-10-20T11:41:43.517Z,5.93
2022-10-20T11:43:08.697Z,7.43
2022-10-20T11:44:37.027Z,6.90
2022-10-20T11:45:50.908Z,2.70
2022-10-20T11:47:02.998Z,3.00
2022-10-20T11:48:39.114Z,3.10
2022-10-20T11:49:41.711Z,2.57
2022-10-20T11:50:58.393Z,5.80
2022-10-20T11:52:55.524Z,2.90
2022-10-20T11:54:05.961Z,3.27
2022-10-20T11:55:39.265Z,3.27
2022-10-20T11:57:11.394Z,7.77
2022-10-20T11:58:21.976Z,5.87
2022-10-20T11:59:54.767Z,3.97
2022-10-20T12:01:15.202Z,3.57
2022-10-20T12:02:38.128Z,3.10
2022-10-20T12:04:02.413Z,4.07
2022-10-20T12:05:46.134Z,7.97
2022-10-20T12:07:20.902Z,23.67
2022-10-20T12:09:13.851Z,5.90
2022-10-20T12:10:24.479Z,4.47
2022-10-20T12:12:00.126Z,5.80
2022-10-20T12:13:49.571Z,6.90
2022-10-20T12:15:02.158Z,7.00
2022-10-20T12:16:04.259Z,8.97
2022-10-20T12:17:19.727Z,2.90
2022-10-20T12:18:35.826Z,3.40
2022-10-20T12:19:37.645Z,7.40
2022-10-20T12:20:39.337Z,5.53
2022-10-20T12:22:04.929Z,3.60
2022-10-20T12:23:06.792Z,3.63
2022-10-20T12:24:52.373Z,2.40
2022-10-20T12:25:54.103Z,2.73
2022-10-20T12:27:10.649Z,2.83
2022-10-20T12:28:22.532Z,3.93
2022-10-20T12:29:33.370Z,3.50
2022-10-20T12:30:37.811Z,4.03
2022-10-20T12:32:28.993Z,2.63
2022-10-20T12:33:51.792Z,3.00
2022-10-20T12:35:16.482Z,3.00
2022-10-20T12:36:18.097Z,5.20
2022-10-20T12:37:34.951Z,2.80
2022-10-20T12:38:37.110Z,4.03
2022-10-20T12:39:40.037Z,5.40
2022-10-20T12:40:51.467Z,4.30
2022-10-20T12:42:05.105Z,2.83
2022-10-20T12:43:24.486Z,3.90
2022-10-20T12:44:32.148Z,2.67
2022-10-20T12:45:44.270Z,3.50
2022-10-20T12:46:57.945Z,3.33
2022-10-20T12:48:02.700Z,2.93
2022-10-20T12:49:12.885Z,7.47
2022-10-20T12:50:46.855Z,11.17
2022-10-20T12:51:55.044Z,3.93
2022-10-20T12:53:17.998Z,10.00
2022-10-20T12:54:36.316Z,4.97
2022-10-20T12:55:42.036Z,2.70
2022-10-20T12:56:45.094Z,3.20
2022-10-20T12:57:47.556Z,2.97
2022-10-20T12:59:20.547Z,2.70
2022-10-20T13:00:23.251Z,3.00
2022-10-20T13:01:25.301Z,2.67
2022-10-20T13:02:26.936Z,3.70
2022-10-20T13:03:48.968Z,2.83
2022-10-20T13:05:41.919Z,4.97
2022-10-20T13:06:43.967Z,5.17
2022-10-20T13:07:48.549Z,3.03
2022-10-20T13:09:10.234Z,2.43
2022-10-20T13:10:27.394Z,2.97
2022-10-20T13:11:38.254Z,2.77
2022-10-20T13:12:40.300Z,2.90
2022-10-20T13:13:59.998Z,3.17
2022-10-20T13:15:13.898Z,2.90
2022-10-20T13:16:22.572Z,2.93
2022-10-20T13:18:01.039Z,5.00
2022-10-20T13:19:09.355Z,2.67
2022-10-20T13:20:53.592Z,2.63
2022-10-20T13:21:56.421Z,3.40
2022-10-20T13:24:14.002Z,3.03
2022-10-20T13:25:45.955Z,3.73
2022-10-20T13:27:02.927Z,3.53
2022-10-20T13:28:18.329Z,2.93
2022-10-20T13:29:25.857Z,3.17
2022-10-20T13:30:27.775Z,2.77
2022-10-20T13:32:18.768Z,3.20
2022-10-20T13:35:14.696Z,3.43
2022-10-20T13:36:29.237Z,3.47
2022-10-20T13:37:42.044Z,3.00
2022-10-20T13:39:15.884Z,2.80
2022-10-20T13:41:03.154Z,2.80
2022-10-20T13:42:35.345Z,3.10
2022-10-20T13:44:22.877Z,3.10
2022-10-20T13:46:15.824Z,3.10
2022-10-20T13:47:48.868Z,3.63
2022-10-20T13:49:10.234Z,3.33
2022-10-20T13:50:22.752Z,3.40
2022-10-20T13:51:32.347Z,3.50
2022-10-20T13:52:41.709Z,3.30
2022-10-20T13:53:48.977Z,5.50
2022-10-20T13:54:52.074Z,4.53
2022-10-20T13:56:15.249Z,6.90
2022-10-20T13:57:33.834Z,3.57
2022-10-20T13:58:35.671Z,4.87
2022-10-20T13:59:39.487Z,6.17
2022-10-20T14:01:02.170Z,4.20
2022-10-20T14:02:31.394Z,4.00
2022-10-20T14:03:46.447Z,6.60
2022-10-20T14:04:48.327Z,6.87
2022-10-20T14:05:50.174Z,6.20
2022-10-20T14:06:53.123Z,5.37
2022-10-20T14:07:56.008Z,4.23
2022-10-20T14:09:10.408Z,4.83
2022-10-20T14:10:48.080Z,6.37
2022-10-20T14:12:02.457Z,4.17
2022-10-20T14:13:10.279Z,4.10
2022-10-20T14:14:17.937Z,4.40
2022-10-20T14:15:34.458Z,5.10
2022-10-20T14:16:37.613Z,3.90
2022-10-20T14:17:40.853Z,3.90
2022-10-20T14:18:42.827Z,6.87
2022-10-20T14:19:46.783Z,4.00
2022-10-20T14:20:55.741Z,4.10
2022-10-20T14:22:24.073Z,4.40
2022-10-20T14:23:31.969Z,4.97
2022-10-20T14:24:42.193Z,6.17
2022-10-20T14:25:45.217Z,5.80
2022-10-20T14:26:47.192Z,5.67
2022-10-20T14:27:53.294Z,6.30
2022-10-20T14:28:55.262Z,4.83
2022-10-20T14:29:58.384Z,5.50
2022-10-20T14:31:01.098Z,6.77
2022-10-20T14:32:04.250Z,8.00
2022-10-20T14:33:06.343Z,7.67
2022-10-20T14:34:23.128Z,11.40
2022-10-20T14:35:28.961Z,7.33
2022-10-20T14:36:31.100Z,11.07
2022-10-20T14:37:37.443Z,6.83
2022-10-20T14:38:39.632Z,7.93
2022-10-20T14:39:41.601Z,7.43
2022-10-20T14:40:54.357Z,9.47
2022-10-20T14:41:59.727Z,8.57
2022-10-20T14:43:18.361Z,7.20
2022-10-20T14:44:30.943Z,7.77
2022-10-20T14:45:33.710Z,7.07
2022-10-20T14:46:41.489Z,7.80
2022-10-20T14:47:43.360Z,8.07
2022-10-20T14:48:49.004Z,9.17
2022-10-20T14:49:54.478Z,9.60
2022-10-20T14:50:56.230Z,8.47
2022-10-20T14:52:26.637Z,7.80
2022-10-20T14:53:34.767Z,7.63
2022-10-20T14:54:39.640Z,9.53
2022-10-20T14:55:41.429Z,9.10
2022-10-20T14:56:46.746Z,12.43
2022-10-20T14:57:48.606Z,7.93
2022-10-20T14:58:57.901Z,11.07
2022-10-20T15:00:31.309Z,9.07
2022-10-20T15:01:33.484Z,6.70
2022-10-20T15:02:43.181Z,6.80
2022-10-20T15:03:45.060Z,10.13
2022-10-20T15:04:51.853Z,6.73
2022-10-20T15:06:03.578Z,9.53
2022-10-20T15:07:15.980Z,8.43
2022-10-20T15:08:31.271Z,9.67
2022-10-20T15:09:42.440Z,7.13
2022-10-20T15:10:45.455Z,6.37
2022-10-20T15:11:47.404Z,9.60
2022-10-20T15:12:53.064Z,7.03
2022-10-20T15:13:58.977Z,8.13
2022-10-20T15:15:08.313Z,6.27
2022-10-20T15:16:39.854Z,7.07
2022-10-20T15:17:44.267Z,7.93